Time;durP1;ratioP1;P1;durP2;ratioP2;P2;SDS_P1;SDS_P2;PMS_P1;PMS_P2;Temp;Humidity;BMP_temperature;BMP_pressure;BME280_temperature;BME280_humidity;BME280_pressure;Samples;Min_cycle;Max_cycle;Signal;HPM_P1;HPM_P2
2022/04/05 00:00:54;;;;;;;43.65;5.65;;;6.80;99.90;;;;;;4999873;28;20026;-76
2022/04/05 00:03:20;;;;;;;42.65;4.65;;;6.80;99.90;;;;;;4998693;28;20038;-76
2022/04/05 00:05:45;;;;;;;47.13;4.75;;;6.80;99.90;;;;;;4998253;28;20039;-76
2022/04/05 00:08:11;;;;;;;42.63;5.35;;;6.80;99.90;;;;;;4997978;28;20041;-76
2022/04/05 00:10:36;;;;;;;42.00;4.97;;;6.70;99.90;;;;;;4998985;28;20023;-78
2022/04/05 00:13:06;;;;;;;45.53;4.85;;;6.80;99.90;;;;;;5003168;28;20022;-77
2022/04/05 00:15:33;;;;;;;40.10;4.88;;;6.80;99.90;;;;;;5000762;28;20123;-78
2022/04/05 00:17:59;;;;;;;49.55;5.32;;;6.70;99.90;;;;;;4998245;28;20487;-76
2022/04/05 00:20:27;;;;;;;37.38;4.80;;;6.70;99.90;;;;;;4996879;28;20030;-76
2022/04/05 00:22:53;;;;;;;47.42;5.95;;;6.80;99.90;;;;;;4998429;28;20030;-77
2022/04/05 00:25:18;;;;;;;52.53;5.00;;;6.70;99.90;;;;;;4997968;28;20027;-76
2022/04/05 00:27:45;;;;;;;45.95;5.30;;;6.70;99.90;;;;;;4997065;28;20085;-78
2022/04/05 00:30:11;;;;;;;38.05;4.25;;;6.80;99.90;;;;;;4996870;28;20092;-76
2022/04/05 00:32:37;;;;;;;40.65;4.47;;;6.80;99.90;;;;;;4999195;28;20033;-77
2022/04/05 00:35:03;;;;;;;27.60;4.07;;;6.80;99.90;;;;;;4996714;28;20022;-77
2022/04/05 00:37:29;;;;;;;46.63;4.55;;;6.80;99.90;;;;;;4997486;28;20029;-77
2022/04/05 00:39:55;;;;;;;37.33;5.28;;;6.70;99.90;;;;;;5000376;28;20038;-77
2022/04/05 00:42:20;;;;;;;39.58;4.47;;;6.70;99.90;;;;;;5003256;28;20061;-77
2022/04/05 00:44:46;;;;;;;37.67;4.28;;;6.70;99.90;;;;;;5004205;28;20034;-77
2022/04/05 00:47:18;;;;;;;34.95;4.30;;;6.60;99.90;;;;;;4995987;28;20037;-77
2022/04/05 00:49:45;;;;;;;36.45;4.40;;;6.60;99.90;;;;;;4994050;28;20026;-76
2022/04/05 00:52:12;;;;;;;30.48;3.60;;;6.50;99.90;;;;;;4999384;28;20029;-76
2022/04/05 00:54:40;;;;;;;39.65;4.00;;;6.50;99.90;;;;;;4997899;28;20029;-78
2022/04/05 00:57:11;;;;;;;34.72;4.45;;;6.50;99.90;;;;;;4998498;28;20098;-77
2022/04/05 00:59:41;;;;;;;32.60;3.95;;;6.50;99.90;;;;;;4998679;28;20428;-78
2022/04/05 01:02:08;;;;;;;36.28;3.30;;;6.50;99.90;;;;;;4998315;28;20484;-77
2022/04/05 01:04:35;;;;;;;28.10;3.85;;;6.50;99.90;;;;;;4998758;28;20479;-77
2022/04/05 01:07:04;;;;;;;32.25;3.47;;;6.50;99.90;;;;;;4998127;28;20057;-77
2022/04/05 01:09:30;;;;;;;35.47;3.63;;;6.50;99.90;;;;;;4996645;28;20115;-77
2022/04/05 01:11:55;;;;;;;26.77;3.10;;;6.50;99.90;;;;;;4998550;28;20023;-77
2022/04/05 01:14:21;;;;;;;30.05;4.47;;;6.50;99.90;;;;;;4999451;28;20030;-77
2022/04/05 01:16:47;;;;;;;33.47;3.75;;;6.50;99.90;;;;;;5003762;28;20026;-77
2022/04/05 01:19:13;;;;;;;46.42;4.22;;;6.50;99.90;;;;;;5003788;28;20033;-77
2022/04/05 01:21:38;;;;;;;38.20;3.88;;;6.60;99.90;;;;;;4997902;28;20027;-77
2022/04/05 01:24:12;;;;;;;35.40;3.85;;;6.60;99.90;;;;;;4999153;28;20053;-77
2022/04/05 01:26:41;;;;;;;34.28;4.47;;;6.60;99.90;;;;;;4998608;28;20057;-77
2022/04/05 01:29:07;;;;;;;25.83;3.90;;;6.70;99.90;;;;;;4998205;28;20032;-78
2022/04/05 01:31:44;;;;;;;28.00;3.35;;;6.70;99.90;;;;;;4996360;28;20023;-76
2022/04/05 01:34:11;;;;;;;35.72;4.47;;;6.70;99.90;;;;;;4995973;28;20019;-76
2022/04/05 01:36:41;;;;;;;30.35;3.58;;;6.70;99.90;;;;;;4995530;28;20030;-77
2022/04/05 01:39:08;;;;;;;34.50;4.43;;;6.70;99.90;;;;;;4995158;28;20022;-77
2022/04/05 01:41:34;;;;;;;29.48;3.08;;;6.60;99.90;;;;;;4998116;28;20026;-76
2022/04/05 01:44:00;;;;;;;39.85;4.28;;;6.60;99.90;;;;;;5011102;28;20056;-76
2022/04/05 01:46:25;;;;;;;23.17;3.30;;;6.60;99.90;;;;;;5010515;28;20034;-76
2022/04/05 01:48:52;;;;;;;20.92;2.72;;;6.60;99.90;;;;;;5001123;28;20038;-76
2022/04/05 01:51:18;;;;;;;26.30;3.38;;;6.50;99.90;;;;;;5003719;28;20101;-77
2022/04/05 01:53:43;;;;;;;24.17;3.03;;;6.50;99.90;;;;;;4997341;28;20029;-77
2022/04/05 01:56:09;;;;;;;26.40;3.38;;;6.50;99.90;;;;;;4992727;28;20026;-77
2022/04/05 01:58:37;;;;;;;19.45;2.88;;;6.50;99.90;;;;;;4994134;28;20031;-76
2022/04/05 02:01:03;;;;;;;20.90;3.28;;;6.50;99.90;;;;;;4994103;28;20030;-76
2022/04/05 02:03:30;;;;;;;31.23;3.65;;;6.40;99.90;;;;;;4996029;28;20041;-77
2022/04/05 02:05:55;;;;;;;20.13;3.13;;;6.40;99.90;;;;;;4997790;28;20027;-77
2022/04/05 02:08:21;;;;;;;27.20;2.80;;;6.40;99.90;;;;;;4995205;28;20129;-77
2022/04/05 02:10:46;;;;;;;23.15;2.55;;;6.40;99.90;;;;;;4997032;28;20077;-76
2022/04/05 02:13:12;;;;;;;22.80;2.85;;;6.40;99.90;;;;;;4996074;28;20026;-77
2022/04/05 02:15:37;;;;;;;25.42;3.38;;;6.40;99.90;;;;;;4994007;28;20019;-78
2022/04/05 02:18:03;;;;;;;28.52;2.70;;;6.40;99.90;;;;;;4995112;28;20049;-75
2022/04/05 02:20:29;;;;;;;20.48;2.70;;;6.40;99.90;;;;;;4995715;28;20049;-76
2022/04/05 02:22:54;;;;;;;17.27;2.83;;;6.40;99.90;;;;;;4995012;28;20046;-76
2022/04/05 02:25:20;;;;;;;22.42;3.15;;;6.30;99.90;;;;;;4994385;28;20029;-78
2022/04/05 02:27:47;;;;;;;17.13;2.17;;;6.20;99.90;;;;;;4995073;28;20034;-76
2022/04/05 02:30:13;;;;;;;20.40;2.08;;;6.10;99.90;;;;;;4994982;28;20050;-76
2022/04/05 02:32:38;;;;;;;16.20;2.22;;;6.10;99.90;;;;;;5017032;23;20104;-75
2022/04/05 02:35:05;;;;;;;23.52;3.22;;;6.00;99.90;;;;;;4993289;28;20019;-76
2022/04/05 02:37:30;;;;;;;20.95;2.83;;;6.00;99.90;;;;;;4993179;28;20034;-77
2022/04/05 02:39:56;;;;;;;18.63;2.65;;;5.90;99.90;;;;;;4993340;28;20376;-76
2022/04/05 02:42:21;;;;;;;15.02;2.38;;;5.90;99.90;;;;;;4975749;28;20062;-75
2022/04/05 02:44:47;;;;;;;15.20;2.20;;;5.90;99.90;;;;;;4992980;28;20101;-76
2022/04/05 02:47:14;;;;;;;25.75;2.47;;;5.90;99.90;;;;;;4993507;28;20029;-77
2022/04/05 02:49:40;;;;;;;30.00;3.70;;;5.90;99.90;;;;;;5002725;28;20049;-76
2022/04/05 02:52:06;;;;;;;18.52;2.40;;;5.90;99.90;;;;;;4993707;28;20471;-77
2022/04/05 02:54:32;;;;;;;19.00;2.50;;;5.90;99.90;;;;;;4994543;28;20026;-76
2022/04/05 02:56:57;;;;;;;21.33;2.97;;;5.90;99.90;;;;;;4993799;28;20044;-76
2022/04/05 02:59:23;;;;;;;18.40;2.45;;;5.90;99.90;;;;;;4992871;28;20089;-75
2022/04/05 03:01:49;;;;;;;20.85;2.85;;;5.90;99.90;;;;;;4992731;28;20022;-76
2022/04/05 03:04:15;;;;;;;22.95;2.67;;;5.80;99.90;;;;;;4992933;28;20077;-77
2022/04/05 03:06:41;;;;;;;22.65;2.85;;;5.80;99.90;;;;;;4992431;28;20074;-76
2022/04/05 03:09:07;;;;;;;23.98;2.75;;;5.80;99.90;;;;;;4975316;28;20384;-76
2022/04/05 03:11:32;;;;;;;21.85;2.90;;;5.80;99.90;;;;;;4992577;28;20041;-76
2022/04/05 03:13:58;;;;;;;24.50;3.30;;;5.80;99.90;;;;;;4992663;28;20599;-76
2022/04/05 03:16:24;;;;;;;28.13;3.65;;;5.80;99.90;;;;;;4992302;28;20153;-76
2022/04/05 03:18:50;;;;;;;20.00;2.47;;;5.80;99.90;;;;;;4992686;28;20032;-76
2022/04/05 03:21:16;;;;;;;23.52;2.60;;;5.80;99.90;;;;;;4992551;28;20105;-77
2022/04/05 03:23:41;;;;;;;25.88;3.03;;;5.80;99.90;;;;;;4992389;28;20124;-77
2022/04/05 03:26:07;;;;;;;23.83;2.88;;;5.80;99.90;;;;;;4992681;28;20105;-76
2022/04/05 03:28:33;;;;;;;20.85;2.80;;;5.80;99.90;;;;;;4992393;28;20037;-77
2022/04/05 03:30:59;;;;;;;24.33;3.22;;;5.70;99.90;;;;;;4992692;28;20037;-76
2022/04/05 03:33:24;;;;;;;22.80;2.97;;;5.80;99.90;;;;;;4992772;28;20471;-75
2022/04/05 03:35:50;;;;;;;13.85;2.67;;;5.80;99.90;;;;;;4975462;28;20030;-77
2022/04/05 03:38:17;;;;;;;20.75;2.60;;;5.70;99.90;;;;;;4997305;28;20050;-76
2022/04/05 03:40:42;;;;;;;20.42;3.30;;;5.70;99.90;;;;;;4996643;28;20546;-76
2022/04/05 03:43:12;;;;;;;29.52;3.25;;;5.70;99.90;;;;;;4999648;28;20030;-77
2022/04/05 03:45:38;;;;;;;32.58;3.17;;;5.70;99.90;;;;;;5000001;28;20022;-76
2022/04/05 03:48:04;;;;;;;33.17;4.40;;;5.70;99.90;;;;;;5002227;28;20065;-78
2022/04/05 03:50:31;;;;;;;27.90;3.55;;;5.70;99.90;;;;;;4982871;28;20081;-77
2022/04/05 03:52:59;;;;;;;26.65;3.42;;;5.70;99.90;;;;;;4999744;28;20026;-77
2022/04/05 03:55:25;;;;;;;33.28;3.58;;;5.70;99.90;;;;;;4996332;28;20563;-76
2022/04/05 03:57:51;;;;;;;23.60;2.53;;;5.70;99.90;;;;;;4996238;28;20113;-76
2022/04/05 04:00:17;;;;;;;24.08;3.65;;;5.60;99.90;;;;;;4996021;28;20026;-76
2022/04/05 04:02:43;;;;;;;20.70;3.13;;;5.60;99.90;;;;;;4996301;28;20093;-76
2022/04/05 04:05:08;;;;;;;23.88;3.25;;;5.60;99.90;;;;;;4996703;28;20391;-77
2022/04/05 04:07:38;;;;;;;30.08;4.28;;;5.60;99.90;;;;;;4978992;28;20030;-76
2022/04/05 04:10:04;;;;;;;24.92;3.47;;;5.70;99.90;;;;;;5002159;28;20045;-77
2022/04/05 04:12:31;;;;;;;27.52;3.30;;;5.60;99.90;;;;;;4999561;28;20551;-77
2022/04/05 04:14:57;;;;;;;24.10;3.47;;;5.70;99.90;;;;;;4980792;28;20395;-76
2022/04/05 04:17:23;;;;;;;25.52;3.17;;;5.70;99.90;;;;;;4978778;28;20026;-78
2022/04/05 04:19:48;;;;;;;28.15;2.92;;;5.60;99.90;;;;;;4995722;28;20030;-76
2022/04/05 04:22:14;;;;;;;21.88;3.00;;;5.70;99.90;;;;;;4996345;28;20337;-77
2022/04/05 04:24:40;;;;;;;25.55;3.03;;;5.60;99.90;;;;;;4995898;28;20023;-78
2022/04/05 04:27:06;;;;;;;23.52;3.13;;;5.60;99.90;;;;;;4995620;28;20109;-77
2022/04/05 04:29:32;;;;;;;30.70;3.47;;;5.60;99.90;;;;;;4996323;28;20030;-77
2022/04/05 04:31:57;;;;;;;28.33;2.85;;;5.50;99.90;;;;;;5000848;28;20038;-76
2022/04/05 04:34:23;;;;;;;30.23;3.40;;;5.60;99.90;;;;;;5005290;28;20030;-76
2022/04/05 04:36:49;;;;;;;28.45;3.58;;;5.60;99.90;;;;;;4999308;28;20034;-78
2022/04/05 04:39:17;;;;;;;26.02;2.97;;;5.50;99.90;;;;;;4978453;28;20049;-76
2022/04/05 04:41:43;;;;;;;31.80;3.05;;;5.50;99.90;;;;;;4995880;28;20176;-77
2022/04/05 04:44:09;;;;;;;26.80;4.05;;;5.50;99.90;;;;;;4978523;28;20022;-77
2022/04/05 04:46:35;;;;;;;28.58;3.33;;;5.50;99.90;;;;;;4995420;28;20090;-76
2022/04/05 04:49:00;;;;;;;24.90;3.10;;;5.50;99.90;;;;;;4998314;28;20038;-77
2022/04/05 04:51:26;;;;;;;26.48;3.58;;;5.50;99.90;;;;;;4997809;28;20027;-76
2022/04/05 04:53:52;;;;;;;20.10;3.42;;;5.50;99.90;;;;;;4996779;28;20021;-75
2022/04/05 04:56:17;;;;;;;29.45;3.22;;;5.40;99.90;;;;;;4996999;28;20025;-77
2022/04/05 04:58:44;;;;;;;22.38;3.50;;;5.50;99.90;;;;;;4978214;28;20030;-78
2022/04/05 05:01:09;;;;;;;24.67;3.13;;;5.50;99.90;;;;;;4996838;28;20085;-76
2022/04/05 05:03:35;;;;;;;30.80;2.97;;;5.50;99.90;;;;;;4997076;28;20391;-78
2022/04/05 05:06:02;;;;;;;27.73;3.45;;;5.50;99.90;;;;;;4996683;28;20030;-78
2022/04/05 05:08:27;;;;;;;28.88;3.53;;;5.50;99.90;;;;;;4997042;28;20026;-77
2022/04/05 05:10:53;;;;;;;26.67;3.15;;;5.60;99.90;;;;;;4980834;28;20034;-77
2022/04/05 05:13:20;;;;;;;24.00;3.13;;;5.60;99.90;;;;;;4996354;28;20380;-78
2022/04/05 05:15:46;;;;;;;33.55;3.95;;;5.60;99.90;;;;;;4997723;28;20606;-78
2022/04/05 05:18:11;;;;;;;34.25;3.53;;;5.70;99.90;;;;;;4997592;28;20073;-78
2022/04/05 05:20:37;;;;;;;30.50;3.13;;;5.80;99.90;;;;;;4983602;28;20387;-77
2022/04/05 05:23:03;;;;;;;30.98;3.25;;;5.80;99.90;;;;;;4997310;28;20026;-77
2022/04/05 05:25:28;;;;;;;22.35;2.60;;;5.80;99.90;;;;;;4996147;28;20085;-76
2022/04/05 05:27:54;;;;;;;24.25;3.17;;;5.80;99.90;;;;;;4976170;28;20097;-76
2022/04/05 05:30:19;;;;;;;26.55;3.63;;;5.70;99.90;;;;;;4994107;28;20027;-77
2022/04/05 05:32:47;;;;;;;18.00;2.55;;;5.90;99.90;;;;;;4995612;28;20034;-76
2022/04/05 05:35:16;;;;;;;18.35;2.80;;;5.80;99.90;;;;;;4996326;28;20045;-76
2022/04/05 05:37:42;;;;;;;17.20;2.60;;;5.80;99.90;;;;;;4995946;28;20383;-76
2022/04/05 05:40:09;;;;;;;21.38;2.95;;;5.80;99.90;;;;;;4994104;28;20030;-75
2022/04/05 05:42:34;;;;;;;22.58;2.65;;;5.90;99.90;;;;;;4977509;28;20045;-78
2022/04/05 05:45:00;;;;;;;15.00;2.58;;;5.80;99.90;;;;;;4978262;28;20022;-75
2022/04/05 05:47:26;;;;;;;22.98;3.33;;;5.80;99.90;;;;;;4994063;28;20034;-76
2022/04/05 05:49:52;;;;;;;16.38;3.20;;;5.90;99.90;;;;;;4976278;28;20451;-76
2022/04/05 05:52:17;;;;;;;17.98;2.67;;;5.90;99.90;;;;;;4993533;28;20030;-76
2022/04/05 05:54:43;;;;;;;21.20;3.15;;;6.00;99.90;;;;;;4993751;28;20030;-77
2022/04/05 05:57:08;;;;;;;25.88;3.53;;;6.00;99.90;;;;;;4994177;28;20024;-76
2022/04/05 05:59:34;;;;;;;21.30;2.72;;;6.00;99.90;;;;;;4993786;28;20035;-76
2022/04/05 06:01:59;;;;;;;24.92;3.17;;;6.00;99.90;;;;;;4994385;28;20471;-76
2022/04/05 06:04:25;;;;;;;21.35;3.22;;;6.00;99.90;;;;;;4994005;28;20022;-76
2022/04/05 06:06:50;;;;;;;24.23;3.13;;;6.10;99.90;;;;;;4993940;28;20030;-77
2022/04/05 06:09:16;;;;;;;27.38;3.55;;;6.10;99.90;;;;;;4994693;28;20030;-76
2022/04/05 06:11:41;;;;;;;18.15;2.95;;;6.20;99.90;;;;;;4996463;28;20022;-77
2022/04/05 06:14:07;;;;;;;26.92;3.33;;;6.20;99.90;;;;;;4977292;28;20033;-77
2022/04/05 06:16:32;;;;;;;29.33;3.50;;;6.30;99.90;;;;;;4977111;28;20056;-77
2022/04/05 06:18:58;;;;;;;26.58;3.28;;;6.30;99.90;;;;;;4994911;28;20030;-77
2022/04/05 06:21:23;;;;;;;25.20;3.22;;;6.30;99.90;;;;;;4994248;28;20030;-76
2022/04/05 06:23:49;;;;;;;27.35;3.08;;;6.50;99.90;;;;;;4976450;28;20481;-77
2022/04/05 06:26:15;;;;;;;28.08;3.28;;;6.60;99.90;;;;;;4996419;28;20022;-76
2022/04/05 06:28:40;;;;;;;24.75;3.85;;;6.60;99.90;;;;;;4997126;28;20027;-77
2022/04/05 06:31:06;;;;;;;21.42;3.20;;;6.60;99.90;;;;;;4994809;28;20094;-76
2022/04/05 06:33:31;;;;;;;23.20;3.03;;;6.70;99.90;;;;;;4994173;28;20480;-78
2022/04/05 06:35:58;;;;;;;35.28;3.40;;;6.80;99.90;;;;;;4977709;28;20029;-76
2022/04/05 06:38:25;;;;;;;30.90;3.78;;;6.90;99.90;;;;;;4996427;28;20053;-77
2022/04/05 06:40:52;;;;;;;25.73;2.97;;;6.80;99.90;;;;;;4998412;28;20060;-76
2022/04/05 06:43:25;;;;;;;22.70;3.03;;;6.70;99.90;;;;;;4982923;28;20121;-76
2022/04/05 06:45:51;;;;;;;24.98;3.15;;;7.00;99.90;;;;;;4999259;28;20041;-77
2022/04/05 06:48:17;;;;;;;30.67;3.60;;;7.10;99.90;;;;;;4998992;28;20384;-77
2022/04/05 06:50:43;;;;;;;26.77;3.90;;;7.10;99.90;;;;;;4996920;28;20077;-76
2022/04/05 06:53:10;;;;;;;28.85;3.67;;;7.20;99.90;;;;;;4994772;28;20085;-75
2022/04/05 06:55:36;;;;;;;19.95;2.15;;;7.10;99.90;;;;;;4993452;28;20022;-77
2022/04/05 06:58:02;;;;;;;22.77;2.85;;;7.10;99.90;;;;;;4993570;28;20034;-76
2022/04/05 07:00:28;;;;;;;20.35;2.83;;;7.40;99.90;;;;;;4994101;28;20030;-77
2022/04/05 07:02:55;;;;;;;20.13;2.88;;;7.30;99.90;;;;;;4993546;28;20053;-76
2022/04/05 07:05:21;;;;;;;16.27;3.15;;;7.40;99.90;;;;;;4994525;28;20096;-77
2022/04/05 07:07:47;;;;;;;19.95;3.53;;;7.40;99.90;;;;;;4993855;28;20027;-76
2022/04/05 07:10:15;;;;;;;18.13;2.88;;;7.40;99.90;;;;;;4993408;28;20035;-77
2022/04/05 07:12:42;;;;;;;25.10;2.97;;;7.50;99.90;;;;;;4978632;28;20360;-78
2022/04/05 07:15:10;;;;;;;30.20;3.00;;;7.70;99.90;;;;;;4994065;28;20038;-77
2022/04/05 07:17:36;;;;;;;24.30;3.00;;;7.80;99.90;;;;;;4993757;28;20101;-77
2022/04/05 07:20:03;;;;;;;20.55;2.40;;;7.90;99.90;;;;;;4993379;28;20038;-77
2022/04/05 07:22:28;;;;;;;14.55;2.42;;;8.00;99.90;;;;;;4994277;28;20641;-77
2022/04/05 07:24:54;;;;;;;19.88;2.40;;;8.00;99.90;;;;;;4994100;28;20034;-78
2022/04/05 07:27:20;;;;;;;21.38;3.30;;;8.00;99.90;;;;;;4993588;28;20061;-77
2022/04/05 07:29:46;;;;;;;24.42;2.50;;;8.00;99.90;;;;;;4993919;28;20034;-77
2022/04/05 07:32:11;;;;;;;21.85;2.60;;;8.00;99.90;;;;;;4996322;28;20030;-77
2022/04/05 07:34:37;;;;;;;19.65;3.33;;;7.90;99.90;;;;;;4982169;28;20023;-75
2022/04/05 07:37:03;;;;;;;13.32;2.45;;;7.90;99.90;;;;;;4998948;28;20027;-75
2022/04/05 07:39:28;;;;;;;17.27;2.30;;;7.90;99.90;;;;;;5000801;28;20037;-77
2022/04/05 07:41:54;;;;;;;15.40;2.53;;;8.00;99.90;;;;;;4994227;28;20026;-77
2022/04/05 07:44:19;;;;;;;22.17;3.08;;;8.10;99.90;;;;;;4992755;28;20076;-76
2022/04/05 07:46:46;;;;;;;23.98;3.22;;;8.10;99.90;;;;;;4992490;28;20030;-77
2022/04/05 07:49:12;;;;;;;18.00;2.45;;;8.30;99.90;;;;;;4993027;28;20058;-77
2022/04/05 07:51:37;;;;;;;21.00;3.10;;;8.30;99.90;;;;;;4975238;28;20029;-77
2022/04/05 07:54:05;;;;;;;22.27;2.53;;;8.30;99.90;;;;;;4992435;28;20030;-77
2022/04/05 07:56:30;;;;;;;16.77;2.53;;;8.30;99.90;;;;;;4993388;28;20057;-78
2022/04/05 07:58:56;;;;;;;17.45;2.28;;;8.40;99.90;;;;;;4994574;28;20034;-76
2022/04/05 08:01:24;;;;;;;19.20;3.45;;;8.60;99.90;;;;;;4994253;28;20103;-77
2022/04/05 08:03:50;;;;;;;17.90;2.25;;;8.70;99.90;;;;;;4994008;28;20034;-77
2022/04/05 08:06:16;;;;;;;16.77;2.33;;;8.60;99.90;;;;;;4992563;28;20029;-76
2022/04/05 08:08:41;;;;;;;25.42;3.08;;;8.60;99.90;;;;;;4992495;28;20391;-74
2022/04/05 08:11:07;;;;;;;21.20;2.40;;;8.50;99.90;;;;;;4992371;28;20041;-75
2022/04/05 08:13:32;;;;;;;35.53;2.95;;;8.40;99.90;;;;;;4975323;28;20030;-75
2022/04/05 08:15:58;;;;;;;21.83;2.35;;;8.40;99.90;;;;;;4992519;28;20109;-76
2022/04/05 08:18:23;;;;;;;19.00;2.83;;;8.40;99.90;;;;;;4992506;28;20519;-75
2022/04/05 08:20:49;;;;;;;21.65;3.13;;;8.40;99.90;;;;;;4992924;28;20114;-74
2022/04/05 08:23:15;;;;;;;25.98;2.92;;;8.50;99.90;;;;;;4978504;28;20085;-75
2022/04/05 08:25:41;;;;;;;20.05;2.80;;;8.50;99.90;;;;;;4996317;28;20030;-75
2022/04/05 08:28:07;;;;;;;24.50;2.83;;;8.40;99.90;;;;;;4996404;28;20539;-74
2022/04/05 08:30:32;;;;;;;31.80;3.00;;;8.40;99.90;;;;;;4990341;28;20085;-76
2022/04/05 08:32:58;;;;;;;25.70;3.25;;;8.30;99.90;;;;;;5012720;23;20102;-74
2022/04/05 08:35:25;;;;;;;18.63;2.92;;;8.30;99.90;;;;;;4999281;28;20026;-75
2022/04/05 08:37:53;;;;;;;13.23;2.20;;;8.20;99.90;;;;;;4996412;28;20110;-75
2022/04/05 08:40:21;;;;;;;15.93;2.38;;;8.10;99.90;;;;;;4996794;28;20045;-75
2022/04/05 08:42:55;;;;;;;9.75;1.70;;;8.00;99.90;;;;;;4996631;28;20042;-74
2022/04/05 08:45:22;;;;;;;6.57;1.60;;;7.80;99.90;;;;;;4996792;28;20084;-75
2022/04/05 08:47:57;;;;;;;9.43;2.05;;;7.50;99.90;;;;;;4996656;28;20113;-76
2022/04/05 08:50:31;;;;;;;8.40;1.65;;;7.50;99.90;;;;;;4997088;28;20098;-77
2022/04/05 08:53:01;;;;;;;7.15;1.45;;;7.70;99.90;;;;;;4998489;28;20034;-77
2022/04/05 08:55:28;;;;;;;7.43;1.27;;;7.80;99.90;;;;;;4999651;28;20021;-76
2022/04/05 08:57:55;;;;;;;10.43;1.95;;;7.90;99.90;;;;;;4980644;28;20041;-78
2022/04/05 09:00:23;;;;;;;8.88;2.95;;;8.20;99.90;;;;;;4999129;28;20034;-78
2022/04/05 09:02:59;;;;;;;9.30;2.17;;;8.90;99.90;;;;;;4997283;28;20026;-77
2022/04/05 09:05:27;;;;;;;8.63;1.52;;;9.60;99.90;;;;;;4980640;28;20053;-76
2022/04/05 09:07:53;;;;;;;10.65;1.63;;;9.90;99.90;;;;;;4997726;28;20483;-78
2022/04/05 09:10:19;;;;;;;14.15;2.10;;;10.00;99.90;;;;;;4999702;28;20030;-78
2022/04/05 09:12:50;;;;;;;12.10;1.90;;;9.90;99.90;;;;;;5005985;28;20106;-76
2022/04/05 09:15:21;;;;;;;10.95;1.83;;;9.80;99.90;;;;;;5004378;28;20026;-80
2022/04/05 09:17:48;;;;;;;12.10;1.80;;;10.20;99.90;;;;;;4991440;28;20399;-77
2022/04/05 09:20:16;;;;;;;12.43;2.13;;;10.50;99.90;;;;;;5005466;28;20018;-75
2022/04/05 09:22:42;;;;;;;14.35;2.00;;;10.70;99.90;;;;;;5003568;28;20050;-78
2022/04/05 09:25:10;;;;;;;10.57;1.70;;;10.60;99.90;;;;;;4995819;28;20105;-77
2022/04/05 09:27:57;;;;;;;11.48;2.10;;;10.40;99.90;;;;;;4995918;28;20022;-76
2022/04/05 09:30:27;;;;;;;10.38;1.50;;;10.10;99.90;;;;;;4978843;28;20034;-77
2022/04/05 09:32:53;;;;;;;10.15;2.10;;;9.70;99.90;;;;;;5001599;28;20034;-76
2022/04/05 09:35:21;;;;;;;12.07;1.90;;;9.70;99.90;;;;;;4985237;28;20438;-78
2022/04/05 09:37:47;;;;;;;12.45;1.60;;;9.40;99.90;;;;;;4997604;28;20033;-76
2022/04/05 09:40:21;;;;;;;19.08;2.17;;;9.20;99.90;;;;;;4999490;28;20035;-76
2022/04/05 09:43:07;;;;;;;8.90;1.73;;;9.10;99.90;;;;;;4978795;28;20414;-78
2022/04/05 09:45:46;;;;;;;11.40;2.50;;;9.10;99.90;;;;;;4997930;28;20097;-77
2022/04/05 09:48:13;;;;;;;17.38;2.25;;;9.00;99.90;;;;;;4996876;28;20108;-79
2022/04/05 09:51:02;;;;;;;11.70;1.88;;;9.00;99.90;;;;;;4997485;28;20057;-79
2022/04/05 09:53:30;;;;;;;13.32;2.30;;;9.00;99.90;;;;;;4979784;28;20023;-76
2022/04/05 09:56:07;;;;;;;18.10;2.83;;;9.00;99.90;;;;;;4999720;28;20168;-76
2022/04/05 09:58:33;;;;;;;16.63;3.15;;;9.10;99.90;;;;;;5001163;28;20430;-78
2022/04/05 10:01:08;;;;;;;16.15;2.47;;;9.20;99.90;;;;;;4984685;28;20019;-77
2022/04/05 10:03:40;;;;;;;14.00;2.63;;;9.10;99.90;;;;;;4980848;28;20018;-78
2022/04/05 10:06:06;;;;;;;16.90;2.10;;;8.90;99.90;;;;;;5000512;28;20030;-78
2022/04/05 10:08:34;;;;;;;24.33;2.63;;;8.90;99.90;;;;;;4997299;28;20479;-77
2022/04/05 10:11:00;;;;;;;32.67;7.97;;;8.80;99.90;;;;;;4982182;28;20057;-78
2022/04/05 10:13:27;;;;;;;15.63;2.63;;;8.90;99.90;;;;;;4998257;28;20034;-77
2022/04/05 10:15:54;;;;;;;24.90;3.28;;;9.00;99.90;;;;;;5002544;28;20023;-79
2022/04/05 10:18:20;;;;;;;18.67;2.83;;;9.10;99.90;;;;;;5001633;28;20023;-80
2022/04/05 10:20:49;;;;;;;18.35;2.90;;;9.00;99.90;;;;;;5003303;28;20026;-79
2022/04/05 10:23:19;;;;;;;15.27;2.20;;;9.20;99.90;;;;;;5002887;28;20073;-79
2022/04/05 10:25:51;;;;;;;19.80;2.58;;;9.10;99.90;;;;;;4999558;28;20026;-78
2022/04/05 10:28:31;;;;;;;14.88;2.10;;;9.00;99.90;;;;;;4999634;28;20545;-78
2022/04/05 10:31:24;;;;;;;12.32;2.53;;;9.10;99.90;;;;;;4997041;28;20033;-78
2022/04/05 10:34:28;;;;;;;24.58;3.08;;;9.30;99.90;;;;;;4994948;28;20026;-80
2022/04/05 10:37:10;;;;;;;15.37;2.43;;;9.30;99.90;;;;;;4977224;28;20475;-79
2022/04/05 10:39:37;;;;;;;11.45;2.10;;;9.20;99.90;;;;;;4994715;28;20491;-77
2022/04/05 10:42:09;;;;;;;15.30;1.90;;;9.10;99.90;;;;;;4994254;28;20037;-76
2022/04/05 10:44:40;;;;;;;13.82;2.38;;;9.10;99.90;;;;;;4977185;28;20125;-77
2022/04/05 10:47:07;;;;;;;14.07;2.53;;;9.00;99.90;;;;;;4994683;28;20050;-77
2022/04/05 10:49:42;;;;;;;19.70;2.80;;;8.90;99.90;;;;;;4994052;28;20026;-76
2022/04/05 10:52:20;;;;;;;13.82;2.20;;;8.90;99.90;;;;;;4976320;28;20077;-78
2022/04/05 10:54:51;;;;;;;12.18;2.50;;;8.90;99.90;;;;;;4993187;28;20145;-77
2022/04/05 10:57:26;;;;;;;16.73;2.05;;;9.00;99.90;;;;;;5001499;28;20024;-80
2022/04/05 10:59:59;;;;;;;15.98;2.85;;;9.00;99.90;;;;;;5017189;28;20011;-79
2022/04/05 11:02:30;;;;;;;15.45;2.78;;;9.00;99.90;;;;;;4999443;28;20048;-79
2022/04/05 11:05:14;;;;;;;9.35;1.88;;;8.90;99.90;;;;;;4993710;28;20087;-78
2022/04/05 11:07:51;;;;;;;8.65;1.80;;;8.60;99.90;;;;;;4975623;28;20025;-76
2022/04/05 11:10:25;;;;;;;9.32;1.58;;;8.50;99.90;;;;;;4994694;28;20558;-78
2022/04/05 11:13:05;;;;;;;9.20;1.77;;;8.50;99.90;;;;;;4997765;28;20023;-78
2022/04/05 11:15:40;;;;;;;14.13;2.30;;;8.60;99.90;;;;;;4999073;28;20057;-77
2022/04/05 11:18:06;;;;;;;13.85;2.38;;;8.70;99.90;;;;;;4997397;28;20054;-77
2022/04/05 11:20:31;;;;;;;15.38;1.50;;;8.80;99.90;;;;;;4998222;28;20483;-79
2022/04/05 11:23:00;;;;;;;18.67;2.35;;;8.90;99.90;;;;;;4979481;28;20041;-77
2022/04/05 11:25:28;;;;;;;14.63;2.15;;;8.90;99.90;;;;;;4994329;28;20141;-77
2022/04/05 11:27:55;;;;;;;11.45;3.10;;;9.00;99.90;;;;;;4995329;28;20049;-77
2022/04/05 11:30:37;;;;;;;11.43;2.15;;;9.10;99.90;;;;;;4995444;28;20459;-78
2022/04/05 11:33:20;;;;;;;16.48;2.05;;;9.20;99.90;;;;;;4992536;28;20041;-78
2022/04/05 11:36:07;;;;;;;17.25;2.45;;;9.20;99.90;;;;;;4992911;28;20054;-78
2022/04/05 11:38:48;;;;;;;10.77;1.92;;;9.30;99.90;;;;;;4994563;28;20027;-76
2022/04/05 11:41:20;;;;;;;16.50;1.85;;;9.30;99.90;;;;;;4994942;28;20030;-78
2022/04/05 11:43:51;;;;;;;9.23;1.50;;;9.10;99.90;;;;;;5006596;28;20033;-78
2022/04/05 11:46:28;;;;;;;12.55;1.85;;;9.20;99.90;;;;;;5013775;28;20093;-78
2022/04/05 11:48:59;;;;;;;5.50;1.60;;;9.20;99.90;;;;;;5016839;28;20045;-78
2022/04/05 11:51:28;;;;;;;11.88;2.08;;;9.20;99.90;;;;;;5021617;28;20088;-80
2022/04/05 11:54:06;;;;;;;15.00;1.77;;;9.20;99.90;;;;;;5019301;28;20026;-79
2022/04/05 11:56:34;;;;;;;8.63;1.95;;;9.10;99.90;;;;;;5018876;28;20028;-80
2022/04/05 11:59:00;;;;;;;10.02;2.35;;;9.20;99.90;;;;;;5020252;28;20028;-78
2022/04/05 12:01:29;;;;;;;15.15;2.45;;;9.30;99.90;;;;;;5017266;28;20048;-78
2022/04/05 12:03:54;;;;;;;10.45;1.73;;;9.50;99.90;;;;;;5020128;28;20125;-79
2022/04/05 12:06:29;;;;;;;10.13;1.88;;;9.60;99.90;;;;;;5018505;28;20037;-77
2022/04/05 12:08:57;;;;;;;23.92;7.13;;;9.70;99.90;;;;;;5000084;28;20495;-78
2022/04/05 12:11:27;;;;;;;10.15;1.92;;;9.80;99.90;;;;;;5000695;28;20472;-79
2022/04/05 12:14:04;;;;;;;15.27;2.30;;;9.80;99.90;;;;;;5016122;28;20014;-78
2022/04/05 12:16:44;;;;;;;6.05;1.48;;;9.90;99.90;;;;;;5017107;28;20025;-78
2022/04/05 12:19:09;;;;;;;9.27;1.65;;;9.80;99.90;;;;;;4999850;28;20083;-78
2022/04/05 12:21:35;;;;;;;11.52;1.70;;;9.70;99.90;;;;;;5018393;28;20029;-77
2022/04/05 12:24:01;;;;;;;10.18;1.60;;;9.70;99.90;;;;;;5018069;28;20033;-79
2022/04/05 12:26:31;;;;;;;12.57;1.58;;;9.70;99.90;;;;;;5018595;28;20083;-80
2022/04/05 12:28:58;;;;;;;12.00;1.98;;;9.60;99.90;;;;;;5021373;28;20029;-77
2022/04/05 12:31:27;;;;;;;7.50;1.75;;;9.60;99.90;;;;;;5002676;28;20428;-78
2022/04/05 12:34:22;;;;;;;8.75;1.92;;;9.50;99.90;;;;;;5019509;28;20026;-78
2022/04/05 12:36:56;;;;;;;20.90;7.88;;;9.40;99.90;;;;;;4999532;28;20018;-78
2022/04/05 12:39:27;;;;;;;32.55;12.85;;;9.30;99.90;;;;;;5018021;28;20062;-77
2022/04/05 12:42:20;;;;;;;11.30;2.58;;;9.30;99.90;;;;;;5016655;28;20022;-78
2022/04/05 12:44:48;;;;;;;12.40;1.83;;;9.30;99.90;;;;;;4994870;28;20176;-78
2022/04/05 12:47:15;;;;;;;6.50;1.60;;;9.30;99.90;;;;;;5017292;28;20104;-78
2022/04/05 12:49:49;;;;;;;10.10;2.40;;;9.30;99.90;;;;;;5023849;28;20026;-79
2022/04/05 12:52:17;;;;;;;10.50;2.17;;;9.50;99.90;;;;;;5025371;28;20021;-78